sensor_id;sensor_type;location;lat;lon;timestamp;P1;durP1;ratioP1;P2;durP2;ratioP2
5414;SDS011;2730;51.512;7.504;2023-07-29T00:01:13;6.07;;;4.70;;
5414;SDS011;2730;51.512;7.504;2023-07-29T00:03:40;5.00;;;4.43;;
5414;SDS011;2730;51.512;7.504;2023-07-29T00:06:09;5.07;;;4.67;;
5414;SDS011;2730;51.512;7.504;2023-07-29T00:08:36;4.60;;;4.20;;
5414;SDS011;2730;51.512;7.504;2023-07-29T00:11:03;5.13;;;4.67;;
5414;SDS011;2730;51.512;7.504;2023-07-29T00:13:31;6.13;;;5.20;;
5414;SDS011;2730;51.512;7.504;2023-07-29T00:15:58;7.80;;;4.50;;
5414;SDS011;2730;51.512;7.504;2023-07-29T00:18:24;4.30;;;4.00;;
5414;SDS011;2730;51.512;7.504;2023-07-29T00:20:52;4.63;;;3.50;;
5414;SDS011;2730;51.512;7.504;2023-07-29T00:23:19;4.80;;;4.37;;
5414;SDS011;2730;51.512;7.504;2023-07-29T00:25:46;3.80;;;3.50;;
5414;SDS011;2730;51.512;7.504;2023-07-29T00:28:13;3.90;;;3.50;;
5414;SDS011;2730;51.512;7.504;2023-07-29T00:30:41;3.83;;;3.40;;
5414;SDS011;2730;51.512;7.504;2023-07-29T00:33:08;3.50;;;3.30;;
5414;SDS011;2730;51.512;7.504;2023-07-29T00:35:35;4.80;;;4.40;;
5414;SDS011;2730;51.512;7.504;2023-07-29T00:38:01;4.30;;;3.90;;
5414;SDS011;2730;51.512;7.504;2023-07-29T00:40:28;3.93;;;3.63;;
5414;SDS011;2730;51.512;7.504;2023-07-29T00:42:55;4.43;;;4.13;;
5414;SDS011;2730;51.512;7.504;2023-07-29T00:45:23;4.07;;;3.70;;
5414;SDS011;2730;51.512;7.504;2023-07-29T00:47:52;5.03;;;4.10;;
5414;SDS011;2730;51.512;7.504;2023-07-29T00:50:19;4.80;;;4.40;;
5414;SDS011;2730;51.512;7.504;2023-07-29T00:52:46;4.77;;;3.90;;
5414;SDS011;2730;51.512;7.504;2023-07-29T00:55:14;4.70;;;4.30;;
5414;SDS011;2730;51.512;7.504;2023-07-29T00:57:41;5.87;;;5.10;;
5414;SDS011;2730;51.512;7.504;2023-07-29T01:00:13;4.90;;;4.50;;
5414;SDS011;2730;51.512;7.504;2023-07-29T01:02:40;4.37;;;3.97;;
5414;SDS011;2730;51.512;7.504;2023-07-29T01:05:09;10.93;;;5.17;;
5414;SDS011;2730;51.512;7.504;2023-07-29T01:07:39;5.90;;;4.90;;
5414;SDS011;2730;51.512;7.504;2023-07-29T01:10:19;4.90;;;4.50;;
5414;SDS011;2730;51.512;7.504;2023-07-29T01:12:54;5.10;;;4.70;;
5414;SDS011;2730;51.512;7.504;2023-07-29T01:15:28;6.00;;;4.20;;
5414;SDS011;2730;51.512;7.504;2023-07-29T01:18:05;4.63;;;4.33;;
5414;SDS011;2730;51.512;7.504;2023-07-29T01:20:37;6.80;;;3.90;;
5414;SDS011;2730;51.512;7.504;2023-07-29T01:23:05;4.60;;;4.20;;
5414;SDS011;2730;51.512;7.504;2023-07-29T01:25:33;5.03;;;4.60;;
5414;SDS011;2730;51.512;7.504;2023-07-29T01:28:00;3.90;;;3.70;;
5414;SDS011;2730;51.512;7.504;2023-07-29T01:30:28;3.60;;;3.40;;
5414;SDS011;2730;51.512;7.504;2023-07-29T01:32:59;3.93;;;3.73;;
5414;SDS011;2730;51.512;7.504;2023-07-29T01:35:31;4.30;;;4.00;;
5414;SDS011;2730;51.512;7.504;2023-07-29T01:38:03;4.97;;;4.57;;
5414;SDS011;2730;51.512;7.504;2023-07-29T01:40:31;4.20;;;3.73;;
5414;SDS011;2730;51.512;7.504;2023-07-29T01:43:01;4.50;;;3.70;;
5414;SDS011;2730;51.512;7.504;2023-07-29T01:45:28;3.97;;;3.67;;
5414;SDS011;2730;51.512;7.504;2023-07-29T01:47:56;4.20;;;3.90;;
5414;SDS011;2730;51.512;7.504;2023-07-29T01:50:23;3.93;;;3.60;;
5414;SDS011;2730;51.512;7.504;2023-07-29T01:52:50;4.17;;;3.87;;
5414;SDS011;2730;51.512;7.504;2023-07-29T01:55:17;7.90;;;4.20;;
5414;SDS011;2730;51.512;7.504;2023-07-29T01:57:45;4.57;;;3.77;;
5414;SDS011;2730;51.512;7.504;2023-07-29T02:00:11;4.60;;;4.10;;
5414;SDS011;2730;51.512;7.504;2023-07-29T02:02:38;4.57;;;4.17;;
5414;SDS011;2730;51.512;7.504;2023-07-29T02:05:05;4.77;;;4.40;;
5414;SDS011;2730;51.512;7.504;2023-07-29T02:07:32;4.20;;;3.90;;
5414;SDS011;2730;51.512;7.504;2023-07-29T02:09:59;4.03;;;3.40;;
5414;SDS011;2730;51.512;7.504;2023-07-29T02:12:26;4.80;;;3.57;;
5414;SDS011;2730;51.512;7.504;2023-07-29T02:14:54;3.80;;;3.50;;
5414;SDS011;2730;51.512;7.504;2023-07-29T02:17:20;4.80;;;3.70;;
5414;SDS011;2730;51.512;7.504;2023-07-29T02:19:47;6.50;;;3.57;;
5414;SDS011;2730;51.512;7.504;2023-07-29T02:22:15;8.10;;;3.90;;
5414;SDS011;2730;51.512;7.504;2023-07-29T02:24:42;4.30;;;3.90;;
5414;SDS011;2730;51.512;7.504;2023-07-29T02:27:09;5.93;;;4.27;;
5414;SDS011;2730;51.512;7.504;2023-07-29T02:29:36;4.10;;;3.80;;
5414;SDS011;2730;51.512;7.504;2023-07-29T02:32:05;3.90;;;3.60;;
5414;SDS011;2730;51.512;7.504;2023-07-29T02:34:31;4.00;;;3.80;;
5414;SDS011;2730;51.512;7.504;2023-07-29T02:36:58;8.23;;;3.40;;
5414;SDS011;2730;51.512;7.504;2023-07-29T02:39:25;4.50;;;4.10;;
5414;SDS011;2730;51.512;7.504;2023-07-29T02:41:52;3.80;;;3.40;;
5414;SDS011;2730;51.512;7.504;2023-07-29T02:44:20;3.30;;;3.10;;
5414;SDS011;2730;51.512;7.504;2023-07-29T02:46:47;4.00;;;3.80;;
5414;SDS011;2730;51.512;7.504;2023-07-29T02:49:15;3.67;;;3.37;;
5414;SDS011;2730;51.512;7.504;2023-07-29T02:51:41;5.80;;;3.57;;
5414;SDS011;2730;51.512;7.504;2023-07-29T02:54:08;4.00;;;3.70;;
5414;SDS011;2730;51.512;7.504;2023-07-29T02:56:35;5.40;;;3.80;;
5414;SDS011;2730;51.512;7.504;2023-07-29T02:59:02;3.83;;;3.53;;
5414;SDS011;2730;51.512;7.504;2023-07-29T03:01:28;3.33;;;3.13;;
5414;SDS011;2730;51.512;7.504;2023-07-29T03:03:55;3.80;;;3.50;;
5414;SDS011;2730;51.512;7.504;2023-07-29T03:06:23;4.10;;;3.80;;
5414;SDS011;2730;51.512;7.504;2023-07-29T03:08:50;4.43;;;3.60;;
5414;SDS011;2730;51.512;7.504;2023-07-29T03:11:17;3.07;;;2.93;;
5414;SDS011;2730;51.512;7.504;2023-07-29T03:13:44;4.40;;;3.60;;
5414;SDS011;2730;51.512;7.504;2023-07-29T03:16:11;3.90;;;3.60;;
5414;SDS011;2730;51.512;7.504;2023-07-29T03:18:39;4.57;;;4.17;;
5414;SDS011;2730;51.512;7.504;2023-07-29T03:21:07;3.40;;;3.13;;
5414;SDS011;2730;51.512;7.504;2023-07-29T03:23:35;3.77;;;3.43;;
5414;SDS011;2730;51.512;7.504;2023-07-29T03:26:03;3.60;;;3.30;;
5414;SDS011;2730;51.512;7.504;2023-07-29T03:28:35;4.60;;;3.70;;
5414;SDS011;2730;51.512;7.504;2023-07-29T03:31:03;3.83;;;3.53;;
5414;SDS011;2730;51.512;7.504;2023-07-29T03:33:30;3.90;;;3.17;;
5414;SDS011;2730;51.512;7.504;2023-07-29T03:35:57;4.00;;;3.70;;
5414;SDS011;2730;51.512;7.504;2023-07-29T03:38:24;6.20;;;3.57;;
5414;SDS011;2730;51.512;7.504;2023-07-29T03:40:52;4.27;;;3.87;;
5414;SDS011;2730;51.512;7.504;2023-07-29T03:43:19;5.20;;;3.90;;
5414;SDS011;2730;51.512;7.504;2023-07-29T03:45:46;4.60;;;4.10;;
5414;SDS011;2730;51.512;7.504;2023-07-29T03:48:12;4.63;;;4.27;;
5414;SDS011;2730;51.512;7.504;2023-07-29T03:50:39;4.53;;;4.13;;
5414;SDS011;2730;51.512;7.504;2023-07-29T03:53:06;6.57;;;3.77;;
5414;SDS011;2730;51.512;7.504;2023-07-29T03:55:35;4.63;;;4.33;;
5414;SDS011;2730;51.512;7.504;2023-07-29T03:58:03;4.77;;;4.37;;
5414;SDS011;2730;51.512;7.504;2023-07-29T04:00:30;5.17;;;4.10;;
5414;SDS011;2730;51.512;7.504;2023-07-29T04:02:57;5.80;;;4.60;;
5414;SDS011;2730;51.512;7.504;2023-07-29T04:05:23;5.57;;;5.07;;
5414;SDS011;2730;51.512;7.504;2023-07-29T04:07:50;4.00;;;3.67;;
5414;SDS011;2730;51.512;7.504;2023-07-29T04:10:18;4.90;;;4.50;;
5414;SDS011;2730;51.512;7.504;2023-07-29T04:12:45;5.80;;;5.20;;
5414;SDS011;2730;51.512;7.504;2023-07-29T04:15:13;4.90;;;4.60;;
5414;SDS011;2730;51.512;7.504;2023-07-29T04:17:40;4.63;;;4.17;;
5414;SDS011;2730;51.512;7.504;2023-07-29T04:20:07;4.73;;;4.23;;
5414;SDS011;2730;51.512;7.504;2023-07-29T04:22:35;8.03;;;4.47;;
5414;SDS011;2730;51.512;7.504;2023-07-29T04:25:02;4.80;;;4.40;;
5414;SDS011;2730;51.512;7.504;2023-07-29T04:27:29;7.17;;;4.17;;
5414;SDS011;2730;51.512;7.504;2023-07-29T04:29:56;5.10;;;4.70;;
5414;SDS011;2730;51.512;7.504;2023-07-29T04:32:24;4.77;;;4.30;;
5414;SDS011;2730;51.512;7.504;2023-07-29T04:34:51;4.40;;;4.10;;
5414;SDS011;2730;51.512;7.504;2023-07-29T04:37:18;4.87;;;4.53;;
5414;SDS011;2730;51.512;7.504;2023-07-29T04:39:45;3.90;;;3.60;;
5414;SDS011;2730;51.512;7.504;2023-07-29T04:42:12;4.60;;;4.17;;
5414;SDS011;2730;51.512;7.504;2023-07-29T04:44:39;6.10;;;3.90;;
5414;SDS011;2730;51.512;7.504;2023-07-29T04:47:07;4.97;;;4.47;;
5414;SDS011;2730;51.512;7.504;2023-07-29T04:49:35;4.70;;;3.83;;
5414;SDS011;2730;51.512;7.504;2023-07-29T04:52:02;5.30;;;4.73;;
5414;SDS011;2730;51.512;7.504;2023-07-29T04:54:29;4.30;;;3.80;;
5414;SDS011;2730;51.512;7.504;2023-07-29T04:56:55;4.37;;;4.00;;
5414;SDS011;2730;51.512;7.504;2023-07-29T04:59:22;5.33;;;4.93;;
5414;SDS011;2730;51.512;7.504;2023-07-29T05:01:49;5.50;;;4.83;;
5414;SDS011;2730;51.512;7.504;2023-07-29T05:04:16;5.07;;;4.57;;
5414;SDS011;2730;51.512;7.504;2023-07-29T05:06:44;6.03;;;4.87;;
5414;SDS011;2730;51.512;7.504;2023-07-29T05:09:14;5.37;;;4.40;;
5414;SDS011;2730;51.512;7.504;2023-07-29T05:11:41;6.67;;;5.23;;
5414;SDS011;2730;51.512;7.504;2023-07-29T05:14:10;7.20;;;5.60;;
5414;SDS011;2730;51.512;7.504;2023-07-29T05:16:37;7.17;;;5.70;;
5414;SDS011;2730;51.512;7.504;2023-07-29T05:19:04;6.57;;;5.30;;
5414;SDS011;2730;51.512;7.504;2023-07-29T05:21:30;7.50;;;6.67;;
5414;SDS011;2730;51.512;7.504;2023-07-29T05:23:58;7.30;;;6.00;;
5414;SDS011;2730;51.512;7.504;2023-07-29T05:26:25;6.80;;;6.20;;
5414;SDS011;2730;51.512;7.504;2023-07-29T05:28:52;6.40;;;5.80;;
5414;SDS011;2730;51.512;7.504;2023-07-29T05:31:19;7.63;;;6.83;;
5414;SDS011;2730;51.512;7.504;2023-07-29T05:33:45;8.50;;;7.20;;
5414;SDS011;2730;51.512;7.504;2023-07-29T05:36:12;11.63;;;7.37;;
5414;SDS011;2730;51.512;7.504;2023-07-29T05:38:39;8.10;;;6.70;;
5414;SDS011;2730;51.512;7.504;2023-07-29T05:41:07;9.80;;;7.47;;
5414;SDS011;2730;51.512;7.504;2023-07-29T05:43:34;9.00;;;7.60;;
5414;SDS011;2730;51.512;7.504;2023-07-29T05:46:00;7.27;;;6.60;;
5414;SDS011;2730;51.512;7.504;2023-07-29T05:48:27;7.20;;;6.50;;
5414;SDS011;2730;51.512;7.504;2023-07-29T05:50:54;9.57;;;7.60;;
5414;SDS011;2730;51.512;7.504;2023-07-29T05:53:21;11.57;;;7.30;;
5414;SDS011;2730;51.512;7.504;2023-07-29T05:55:47;10.47;;;7.10;;
5414;SDS011;2730;51.512;7.504;2023-07-29T05:58:16;9.63;;;7.63;;
5414;SDS011;2730;51.512;7.504;2023-07-29T06:00:42;7.77;;;7.07;;
5414;SDS011;2730;51.512;7.504;2023-07-29T06:03:09;9.00;;;6.80;;
5414;SDS011;2730;51.512;7.504;2023-07-29T06:05:36;8.53;;;7.73;;
5414;SDS011;2730;51.512;7.504;2023-07-29T06:08:03;10.83;;;7.60;;
5414;SDS011;2730;51.512;7.504;2023-07-29T06:10:30;8.23;;;7.23;;
5414;SDS011;2730;51.512;7.504;2023-07-29T06:12:56;9.77;;;8.13;;
5414;SDS011;2730;51.512;7.504;2023-07-29T06:15:25;8.63;;;7.70;;
5414;SDS011;2730;51.512;7.504;2023-07-29T06:17:51;10.47;;;7.20;;
5414;SDS011;2730;51.512;7.504;2023-07-29T06:20:19;9.73;;;8.30;;
5414;SDS011;2730;51.512;7.504;2023-07-29T06:22:46;10.03;;;8.50;;
5414;SDS011;2730;51.512;7.504;2023-07-29T06:25:12;10.73;;;8.03;;
5414;SDS011;2730;51.512;7.504;2023-07-29T06:27:39;14.60;;;8.47;;
5414;SDS011;2730;51.512;7.504;2023-07-29T06:30:06;9.33;;;7.90;;
5414;SDS011;2730;51.512;7.504;2023-07-29T06:32:35;13.50;;;9.23;;
5414;SDS011;2730;51.512;7.504;2023-07-29T06:35:02;12.20;;;9.33;;
5414;SDS011;2730;51.512;7.504;2023-07-29T06:37:29;16.03;;;10.13;;
5414;SDS011;2730;51.512;7.504;2023-07-29T06:39:56;12.30;;;9.70;;
5414;SDS011;2730;51.512;7.504;2023-07-29T06:42:22;14.87;;;10.87;;
5414;SDS011;2730;51.512;7.504;2023-07-29T06:44:49;15.90;;;10.00;;
5414;SDS011;2730;51.512;7.504;2023-07-29T06:47:16;13.87;;;11.17;;
5414;SDS011;2730;51.512;7.504;2023-07-29T06:49:45;10.40;;;7.80;;
5414;SDS011;2730;51.512;7.504;2023-07-29T06:52:12;14.17;;;8.00;;
5414;SDS011;2730;51.512;7.504;2023-07-29T06:54:39;7.60;;;6.03;;
5414;SDS011;2730;51.512;7.504;2023-07-29T06:57:06;7.97;;;6.43;;
5414;SDS011;2730;51.512;7.504;2023-07-29T06:59:33;7.73;;;4.30;;
5414;SDS011;2730;51.512;7.504;2023-07-29T07:02:00;5.50;;;4.17;;
5414;SDS011;2730;51.512;7.504;2023-07-29T07:04:27;5.53;;;3.40;;
5414;SDS011;2730;51.512;7.504;2023-07-29T07:06:55;3.37;;;3.17;;
5414;SDS011;2730;51.512;7.504;2023-07-29T07:09:21;4.47;;;3.63;;
5414;SDS011;2730;51.512;7.504;2023-07-29T07:11:48;5.20;;;3.20;;
5414;SDS011;2730;51.512;7.504;2023-07-29T07:14:15;6.40;;;4.23;;
5414;SDS011;2730;51.512;7.504;2023-07-29T07:16:42;4.03;;;3.40;;
5414;SDS011;2730;51.512;7.504;2023-07-29T07:19:08;6.77;;;3.80;;
5414;SDS011;2730;51.512;7.504;2023-07-29T07:21:35;3.43;;;3.13;;
5414;SDS011;2730;51.512;7.504;2023-07-29T07:24:03;3.70;;;3.10;;
5414;SDS011;2730;51.512;7.504;2023-07-29T07:26:30;3.60;;;2.97;;
5414;SDS011;2730;51.512;7.504;2023-07-29T07:28:57;6.00;;;3.20;;
5414;SDS011;2730;51.512;7.504;2023-07-29T07:31:24;2.83;;;2.37;;
5414;SDS011;2730;51.512;7.504;2023-07-29T07:33:51;2.63;;;2.10;;
5414;SDS011;2730;51.512;7.504;2023-07-29T07:36:17;4.43;;;2.60;;
5414;SDS011;2730;51.512;7.504;2023-07-29T07:38:44;2.63;;;2.43;;
5414;SDS011;2730;51.512;7.504;2023-07-29T07:41:12;1.77;;;1.67;;
5414;SDS011;2730;51.512;7.504;2023-07-29T07:43:39;5.57;;;2.50;;
5414;SDS011;2730;51.512;7.504;2023-07-29T07:46:06;2.80;;;2.03;;
5414;SDS011;2730;51.512;7.504;2023-07-29T07:48:33;2.10;;;2.00;;
5414;SDS011;2730;51.512;7.504;2023-07-29T07:50:59;3.20;;;1.80;;
5414;SDS011;2730;51.512;7.504;2023-07-29T07:53:26;1.80;;;1.70;;
5414;SDS011;2730;51.512;7.504;2023-07-29T07:55:53;1.73;;;1.63;;
5414;SDS011;2730;51.512;7.504;2023-07-29T07:58:21;2.03;;;1.93;;
5414;SDS011;2730;51.512;7.504;2023-07-29T08:00:48;1.77;;;1.60;;
5414;SDS011;2730;51.512;7.504;2023-07-29T08:03:14;1.70;;;1.60;;
5414;SDS011;2730;51.512;7.504;2023-07-29T08:05:41;3.10;;;1.63;;
5414;SDS011;2730;51.512;7.504;2023-07-29T08:08:08;2.23;;;1.47;;
5414;SDS011;2730;51.512;7.504;2023-07-29T08:10:34;2.63;;;1.60;;
5414;SDS011;2730;51.512;7.504;2023-07-29T08:13:01;1.60;;;1.27;;
5414;SDS011;2730;51.512;7.504;2023-07-29T08:15:29;4.03;;;1.50;;
5414;SDS011;2730;51.512;7.504;2023-07-29T08:17:56;1.77;;;1.20;;
5414;SDS011;2730;51.512;7.504;2023-07-29T08:20:23;2.03;;;1.83;;
5414;SDS011;2730;51.512;7.504;2023-07-29T08:22:49;4.77;;;1.53;;
5414;SDS011;2730;51.512;7.504;2023-07-29T08:25:16;1.30;;;1.20;;
5414;SDS011;2730;51.512;7.504;2023-07-29T08:27:43;1.37;;;1.27;;
5414;SDS011;2730;51.512;7.504;2023-07-29T08:30:10;2.53;;;1.50;;
5414;SDS011;2730;51.512;7.504;2023-07-29T08:32:38;1.30;;;1.20;;
5414;SDS011;2730;51.512;7.504;2023-07-29T08:35:05;3.53;;;1.70;;
5414;SDS011;2730;51.512;7.504;2023-07-29T08:37:32;2.70;;;1.50;;
5414;SDS011;2730;51.512;7.504;2023-07-29T08:39:59;2.87;;;1.60;;
5414;SDS011;2730;51.512;7.504;2023-07-29T08:42:27;1.20;;;1.10;;
5414;SDS011;2730;51.512;7.504;2023-07-29T08:44:57;1.50;;;1.40;;
5414;SDS011;2730;51.512;7.504;2023-07-29T08:47:32;1.67;;;1.57;;
5414;SDS011;2730;51.512;7.504;2023-07-29T08:50:01;1.37;;;1.27;;
5414;SDS011;2730;51.512;7.504;2023-07-29T08:52:29;1.90;;;1.80;;
5414;SDS011;2730;51.512;7.504;2023-07-29T08:54:57;1.47;;;1.37;;
5414;SDS011;2730;51.512;7.504;2023-07-29T08:57:24;1.80;;;1.70;;
5414;SDS011;2730;51.512;7.504;2023-07-29T08:59:51;1.50;;;1.40;;
5414;SDS011;2730;51.512;7.504;2023-07-29T09:02:18;2.50;;;1.83;;
5414;SDS011;2730;51.512;7.504;2023-07-29T09:04:45;1.73;;;1.63;;
5414;SDS011;2730;51.512;7.504;2023-07-29T09:07:13;1.93;;;1.77;;
5414;SDS011;2730;51.512;7.504;2023-07-29T09:09:40;1.50;;;1.40;;
5414;SDS011;2730;51.512;7.504;2023-07-29T09:12:07;3.90;;;1.30;;
5414;SDS011;2730;51.512;7.504;2023-07-29T09:14:34;3.63;;;1.10;;
5414;SDS011;2730;51.512;7.504;2023-07-29T09:17:01;1.20;;;1.10;;
5414;SDS011;2730;51.512;7.504;2023-07-29T09:19:28;4.20;;;1.13;;
5414;SDS011;2730;51.512;7.504;2023-07-29T09:21:59;1.77;;;1.63;;
5414;SDS011;2730;51.512;7.504;2023-07-29T09:24:28;1.30;;;1.10;;
5414;SDS011;2730;51.512;7.504;2023-07-29T09:26:57;3.37;;;1.20;;
5414;SDS011;2730;51.512;7.504;2023-07-29T09:29:24;1.23;;;1.07;;
5414;SDS011;2730;51.512;7.504;2023-07-29T09:31:55;1.37;;;1.20;;
5414;SDS011;2730;51.512;7.504;2023-07-29T09:34:45;2.00;;;1.23;;
5414;SDS011;2730;51.512;7.504;2023-07-29T09:37:15;1.97;;;1.20;;
5414;SDS011;2730;51.512;7.504;2023-07-29T09:39:45;1.40;;;1.30;;
5414;SDS011;2730;51.512;7.504;2023-07-29T09:42:16;19.37;;;1.37;;
5414;SDS011;2730;51.512;7.504;2023-07-29T09:44:44;1.60;;;1.17;;
5414;SDS011;2730;51.512;7.504;2023-07-29T09:47:18;1.53;;;1.30;;
5414;SDS011;2730;51.512;7.504;2023-07-29T09:49:46;1.50;;;1.40;;
5414;SDS011;2730;51.512;7.504;2023-07-29T09:52:14;1.13;;;1.03;;
5414;SDS011;2730;51.512;7.504;2023-07-29T09:54:42;1.67;;;1.57;;
5414;SDS011;2730;51.512;7.504;2023-07-29T09:57:10;1.50;;;1.40;;
5414;SDS011;2730;51.512;7.504;2023-07-29T09:59:38;1.40;;;1.20;;
5414;SDS011;2730;51.512;7.504;2023-07-29T10:02:06;3.23;;;1.20;;
5414;SDS011;2730;51.512;7.504;2023-07-29T10:04:39;1.17;;;1.10;;
5414;SDS011;2730;51.512;7.504;2023-07-29T10:07:07;1.27;;;1.20;;
5414;SDS011;2730;51.512;7.504;2023-07-29T10:09:35;1.93;;;1.10;;
5414;SDS011;2730;51.512;7.504;2023-07-29T10:12:04;2.30;;;1.10;;
5414;SDS011;2730;51.512;7.504;2023-07-29T10:14:34;1.07;;;1.07;;
5414;SDS011;2730;51.512;7.504;2023-07-29T10:17:03;2.50;;;1.00;;
5414;SDS011;2730;51.512;7.504;2023-07-29T10:19:31;1.23;;;1.23;;
5414;SDS011;2730;51.512;7.504;2023-07-29T10:21:59;1.40;;;1.30;;
5414;SDS011;2730;51.512;7.504;2023-07-29T10:24:30;2.00;;;1.00;;
5414;SDS011;2730;51.512;7.504;2023-07-29T10:27:00;1.27;;;1.20;;
5414;SDS011;2730;51.512;7.504;2023-07-29T10:29:29;1.50;;;1.40;;
5414;SDS011;2730;51.512;7.504;2023-07-29T10:31:59;1.50;;;1.40;;
5414;SDS011;2730;51.512;7.504;2023-07-29T10:34:28;1.43;;;1.33;;
5414;SDS011;2730;51.512;7.504;2023-07-29T10:36:56;2.07;;;1.50;;
5414;SDS011;2730;51.512;7.504;2023-07-29T10:39:24;1.63;;;1.53;;
5414;SDS011;2730;51.512;7.504;2023-07-29T10:41:54;4.50;;;1.93;;
5414;SDS011;2730;51.512;7.504;2023-07-29T10:47:17;1.50;;;1.40;;
5414;SDS011;2730;51.512;7.504;2023-07-29T10:49:45;6.40;;;1.60;;
5414;SDS011;2730;51.512;7.504;2023-07-29T10:52:13;3.93;;;1.23;;
5414;SDS011;2730;51.512;7.504;2023-07-29T10:54:41;1.30;;;1.20;;
5414;SDS011;2730;51.512;7.504;2023-07-29T10:57:12;1.60;;;1.50;;
5414;SDS011;2730;51.512;7.504;2023-07-29T10:59:39;1.57;;;1.47;;
5414;SDS011;2730;51.512;7.504;2023-07-29T11:02:12;1.70;;;1.60;;
5414;SDS011;2730;51.512;7.504;2023-07-29T11:04:46;4.13;;;1.37;;
5414;SDS011;2730;51.512;7.504;2023-07-29T11:07:23;1.40;;;1.30;;
5414;SDS011;2730;51.512;7.504;2023-07-29T11:09:53;1.93;;;1.50;;
5414;SDS011;2730;51.512;7.504;2023-07-29T11:12:38;1.27;;;1.23;;
5414;SDS011;2730;51.512;7.504;2023-07-29T11:15:17;1.23;;;1.17;;
5414;SDS011;2730;51.512;7.504;2023-07-29T11:17:47;1.40;;;1.30;;
5414;SDS011;2730;51.512;7.504;2023-07-29T11:20:15;1.10;;;1.10;;
5414;SDS011;2730;51.512;7.504;2023-07-29T11:22:42;1.40;;;1.30;;
5414;SDS011;2730;51.512;7.504;2023-07-29T11:25:10;1.40;;;1.30;;
5414;SDS011;2730;51.512;7.504;2023-07-29T11:27:37;1.47;;;1.37;;
5414;SDS011;2730;51.512;7.504;2023-07-29T11:30:05;1.50;;;1.40;;
5414;SDS011;2730;51.512;7.504;2023-07-29T11:32:34;1.30;;;1.20;;
5414;SDS011;2730;51.512;7.504;2023-07-29T11:35:04;1.60;;;1.50;;
5414;SDS011;2730;51.512;7.504;2023-07-29T11:37:32;6.30;;;1.23;;
5414;SDS011;2730;51.512;7.504;2023-07-29T11:39:59;1.10;;;1.10;;
5414;SDS011;2730;51.512;7.504;2023-07-29T11:42:27;1.33;;;1.23;;
5414;SDS011;2730;51.512;7.504;2023-07-29T11:44:56;3.40;;;1.30;;
5414;SDS011;2730;51.512;7.504;2023-07-29T11:47:23;1.40;;;1.30;;
5414;SDS011;2730;51.512;7.504;2023-07-29T11:49:50;1.90;;;1.80;;
5414;SDS011;2730;51.512;7.504;2023-07-29T11:52:19;1.63;;;1.53;;
5414;SDS011;2730;51.512;7.504;2023-07-29T11:54:47;2.00;;;1.90;;
5414;SDS011;2730;51.512;7.504;2023-07-29T11:57:14;2.00;;;1.90;;
5414;SDS011;2730;51.512;7.504;2023-07-29T11:59:43;1.77;;;1.57;;
5414;SDS011;2730;51.512;7.504;2023-07-29T12:02:11;1.60;;;1.50;;
5414;SDS011;2730;51.512;7.504;2023-07-29T12:04:39;1.57;;;1.47;;
5414;SDS011;2730;51.512;7.504;2023-07-29T12:07:07;1.63;;;1.40;;
5414;SDS011;2730;51.512;7.504;2023-07-29T12:09:35;1.30;;;1.20;;
5414;SDS011;2730;51.512;7.504;2023-07-29T12:12:04;1.30;;;1.10;;
5414;SDS011;2730;51.512;7.504;2023-07-29T12:14:31;1.47;;;1.37;;
5414;SDS011;2730;51.512;7.504;2023-07-29T12:16:59;1.40;;;1.20;;
5414;SDS011;2730;51.512;7.504;2023-07-29T12:19:31;2.63;;;1.23;;
5414;SDS011;2730;51.512;7.504;2023-07-29T12:21:58;1.40;;;1.30;;
5414;SDS011;2730;51.512;7.504;2023-07-29T12:24:25;1.10;;;1.10;;
5414;SDS011;2730;51.512;7.504;2023-07-29T12:26:53;1.27;;;1.17;;
5414;SDS011;2730;51.512;7.504;2023-07-29T12:29:20;2.80;;;1.40;;
5414;SDS011;2730;51.512;7.504;2023-07-29T12:31:46;2.00;;;1.20;;
5414;SDS011;2730;51.512;7.504;2023-07-29T12:34:17;1.30;;;1.20;;
5414;SDS011;2730;51.512;7.504;2023-07-29T12:36:45;1.10;;;1.10;;
5414;SDS011;2730;51.512;7.504;2023-07-29T12:39:17;1.37;;;1.27;;
5414;SDS011;2730;51.512;7.504;2023-07-29T12:41:45;1.77;;;1.67;;
5414;SDS011;2730;51.512;7.504;2023-07-29T12:44:13;1.47;;;1.37;;
5414;SDS011;2730;51.512;7.504;2023-07-29T12:46:40;2.50;;;1.30;;
5414;SDS011;2730;51.512;7.504;2023-07-29T12:49:07;1.50;;;1.40;;
5414;SDS011;2730;51.512;7.504;2023-07-29T12:51:34;1.40;;;1.30;;
5414;SDS011;2730;51.512;7.504;2023-07-29T12:54:02;1.30;;;1.20;;
5414;SDS011;2730;51.512;7.504;2023-07-29T12:56:29;1.40;;;1.30;;
5414;SDS011;2730;51.512;7.504;2023-07-29T12:58:56;1.60;;;1.50;;
5414;SDS011;2730;51.512;7.504;2023-07-29T13:01:25;1.27;;;1.17;;
5414;SDS011;2730;51.512;7.504;2023-07-29T13:03:52;1.60;;;1.40;;
5414;SDS011;2730;51.512;7.504;2023-07-29T13:06:19;1.33;;;1.23;;
5414;SDS011;2730;51.512;7.504;2023-07-29T13:08:46;3.00;;;1.20;;
5414;SDS011;2730;51.512;7.504;2023-07-29T13:11:13;1.37;;;1.20;;
5414;SDS011;2730;51.512;7.504;2023-07-29T13:13:40;3.27;;;1.40;;
5414;SDS011;2730;51.512;7.504;2023-07-29T13:16:07;1.50;;;1.40;;
5414;SDS011;2730;51.512;7.504;2023-07-29T13:18:35;1.60;;;1.50;;
5414;SDS011;2730;51.512;7.504;2023-07-29T13:21:02;1.90;;;1.80;;
5414;SDS011;2730;51.512;7.504;2023-07-29T13:23:29;2.80;;;1.50;;
5414;SDS011;2730;51.512;7.504;2023-07-29T13:25:57;1.90;;;1.60;;
5414;SDS011;2730;51.512;7.504;2023-07-29T13:28:24;2.03;;;1.93;;
5414;SDS011;2730;51.512;7.504;2023-07-29T13:30:50;3.37;;;1.63;;
5414;SDS011;2730;51.512;7.504;2023-07-29T13:33:17;1.43;;;1.33;;
5414;SDS011;2730;51.512;7.504;2023-07-29T13:35:45;1.50;;;1.40;;
5414;SDS011;2730;51.512;7.504;2023-07-29T13:38:12;1.80;;;1.70;;
5414;SDS011;2730;51.512;7.504;2023-07-29T13:40:39;1.53;;;1.40;;
5414;SDS011;2730;51.512;7.504;2023-07-29T13:43:05;1.37;;;1.27;;
5414;SDS011;2730;51.512;7.504;2023-07-29T13:45:33;4.40;;;1.50;;
5414;SDS011;2730;51.512;7.504;2023-07-29T13:48:00;1.50;;;1.40;;
5414;SDS011;2730;51.512;7.504;2023-07-29T13:50:27;1.63;;;1.53;;
5414;SDS011;2730;51.512;7.504;2023-07-29T13:52:55;1.50;;;1.40;;
5414;SDS011;2730;51.512;7.504;2023-07-29T13:55:22;4.20;;;1.43;;
5414;SDS011;2730;51.512;7.504;2023-07-29T13:57:49;1.50;;;1.40;;
5414;SDS011;2730;51.512;7.504;2023-07-29T14:00:15;1.53;;;1.43;;
5414;SDS011;2730;51.512;7.504;2023-07-29T14:02:42;1.80;;;1.70;;
5414;SDS011;2730;51.512;7.504;2023-07-29T14:05:09;2.50;;;1.87;;
5414;SDS011;2730;51.512;7.504;2023-07-29T14:07:36;1.40;;;1.30;;
5414;SDS011;2730;51.512;7.504;2023-07-29T14:10:05;1.60;;;1.50;;
5414;SDS011;2730;51.512;7.504;2023-07-29T14:12:33;1.67;;;1.57;;
5414;SDS011;2730;51.512;7.504;2023-07-29T14:15:00;3.20;;;1.50;;
5414;SDS011;2730;51.512;7.504;2023-07-29T14:17:27;2.50;;;1.70;;
5414;SDS011;2730;51.512;7.504;2023-07-29T14:19:54;1.97;;;1.87;;
5414;SDS011;2730;51.512;7.504;2023-07-29T14:22:20;1.90;;;1.80;;
5414;SDS011;2730;51.512;7.504;2023-07-29T14:24:47;4.90;;;2.33;;
5414;SDS011;2730;51.512;7.504;2023-07-29T14:27:15;2.03;;;1.93;;
5414;SDS011;2730;51.512;7.504;2023-07-29T14:29:42;3.10;;;1.60;;
5414;SDS011;2730;51.512;7.504;2023-07-29T14:32:09;4.17;;;2.33;;
5414;SDS011;2730;51.512;7.504;2023-07-29T14:34:36;3.47;;;2.00;;
5414;SDS011;2730;51.512;7.504;2023-07-29T14:37:03;3.07;;;2.87;;
5414;SDS011;2730;51.512;7.504;2023-07-29T14:39:31;2.27;;;2.03;;
5414;SDS011;2730;51.512;7.504;2023-07-29T14:41:57;2.10;;;2.00;;
5414;SDS011;2730;51.512;7.504;2023-07-29T14:44:26;2.00;;;1.80;;
5414;SDS011;2730;51.512;7.504;2023-07-29T14:46:52;1.90;;;1.80;;
5414;SDS011;2730;51.512;7.504;2023-07-29T14:49:20;2.57;;;2.10;;
5414;SDS011;2730;51.512;7.504;2023-07-29T14:51:47;1.97;;;1.83;;
5414;SDS011;2730;51.512;7.504;2023-07-29T14:54:13;2.80;;;2.53;;
5414;SDS011;2730;51.512;7.504;2023-07-29T14:56:40;2.40;;;2.20;;
5414;SDS011;2730;51.512;7.504;2023-07-29T14:59:07;1.60;;;1.50;;
5414;SDS011;2730;51.512;7.504;2023-07-29T15:01:35;2.07;;;1.90;;
5414;SDS011;2730;51.512;7.504;2023-07-29T15:04:02;7.60;;;2.20;;
5414;SDS011;2730;51.512;7.504;2023-07-29T15:06:29;1.83;;;1.73;;
5414;SDS011;2730;51.512;7.504;2023-07-29T15:08:56;2.73;;;1.90;;
5414;SDS011;2730;51.512;7.504;2023-07-29T15:11:23;1.90;;;1.70;;
5414;SDS011;2730;51.512;7.504;2023-07-29T15:13:49;2.00;;;1.90;;
5414;SDS011;2730;51.512;7.504;2023-07-29T15:16:16;4.33;;;1.97;;
5414;SDS011;2730;51.512;7.504;2023-07-29T15:18:44;3.30;;;1.83;;
5414;SDS011;2730;51.512;7.504;2023-07-29T15:21:11;3.03;;;2.10;;